createdAt,value
2022-11-08T00:01:31.633Z,53.00
2022-11-08T00:06:51.890Z,53.03
2022-11-08T00:12:12.279Z,52.81
2022-11-08T00:17:15.687Z,52.79
2022-11-08T00:22:17.671Z,53.04
2022-11-08T00:27:22.488Z,52.97
2022-11-08T00:32:25.970Z,52.88
2022-11-08T00:37:27.499Z,53.13
2022-11-08T00:42:29.207Z,53.23
2022-11-08T00:47:30.805Z,53.28
2022-11-08T00:52:32.658Z,53.47
2022-11-08T00:57:47.226Z,53.42
2022-11-08T01:03:14.157Z,53.67
2022-11-08T01:08:16.731Z,53.34
2022-11-08T01:13:19.371Z,53.48
2022-11-08T01:18:21.448Z,53.41
2022-11-08T01:23:23.205Z,53.47
2022-11-08T01:28:24.746Z,53.77
2022-11-08T01:33:26.290Z,54.07
2022-11-08T01:38:28.091Z,53.73
2022-11-08T01:43:29.598Z,53.99
2022-11-08T01:48:31.630Z,53.79
2022-11-08T01:53:33.410Z,53.72
2022-11-08T01:58:37.696Z,53.83
2022-11-08T02:03:41.074Z,53.53
2022-11-08T02:08:44.659Z,53.73
2022-11-08T02:13:46.292Z,53.89
2022-11-08T02:18:48.741Z,53.63
2022-11-08T02:23:59.497Z,53.90
2022-11-08T02:29:34.090Z,53.74
2022-11-08T02:34:41.737Z,53.93
2022-11-08T02:39:43.365Z,54.19
2022-11-08T02:44:48.387Z,53.94
2022-11-08T02:49:50.477Z,53.99
2022-11-08T02:54:52.096Z,53.77
2022-11-08T02:59:53.647Z,53.59
2022-11-08T03:04:55.322Z,53.80
2022-11-08T03:09:56.926Z,54.13
2022-11-08T03:14:58.494Z,54.62
2022-11-08T03:20:00.610Z,54.49
2022-11-08T03:25:02.391Z,54.41
2022-11-08T03:30:06.235Z,54.55
2022-11-08T03:35:08.509Z,54.68
2022-11-08T03:40:10.812Z,54.84
2022-11-08T03:45:13.261Z,54.77
2022-11-08T03:50:16.215Z,54.86
2022-11-08T03:55:19.963Z,55.11
2022-11-08T04:00:24.526Z,55.12
2022-11-08T04:05:28.010Z,54.99
2022-11-08T04:10:29.678Z,55.28
2022-11-08T04:15:31.980Z,55.20
2022-11-08T04:20:56.533Z,55.19
2022-11-08T04:26:05.229Z,55.48
2022-11-08T04:31:14.631Z,55.38
2022-11-08T04:36:17.002Z,55.42
2022-11-08T04:41:21.340Z,55.72
2022-11-08T04:46:25.708Z,55.56
2022-11-08T04:51:30.015Z,55.71
2022-11-08T04:56:32.219Z,56.10
2022-11-08T05:01:33.952Z,55.55
2022-11-08T05:06:35.561Z,55.54
2022-11-08T05:11:37.082Z,55.78
2022-11-08T05:16:38.694Z,55.85
2022-11-08T05:21:58.821Z,55.56
2022-11-08T05:27:00.359Z,55.39
2022-11-08T05:32:01.894Z,55.23
2022-11-08T05:37:03.616Z,55.21
2022-11-08T05:42:05.394Z,55.33
2022-11-08T05:47:07.279Z,55.17
2022-11-08T05:52:09.092Z,55.29
2022-11-08T05:57:10.636Z,55.38
2022-11-08T06:02:12.362Z,55.32
2022-11-08T06:07:14.103Z,55.04
2022-11-08T06:12:15.639Z,55.14
2022-11-08T06:17:17.245Z,54.96
2022-11-08T06:22:18.781Z,54.86
2022-11-08T06:27:20.320Z,55.20
2022-11-08T06:32:21.951Z,55.28
2022-11-08T06:37:23.488Z,55.35
2022-11-08T06:42:26.085Z,55.32
2022-11-08T06:47:27.679Z,55.33
2022-11-08T06:52:29.253Z,55.68
2022-11-08T06:57:30.801Z,55.66
2022-11-08T07:02:32.475Z,55.77
2022-11-08T07:07:34.043Z,55.53
2022-11-08T07:12:35.606Z,56.21
2022-11-08T07:17:38.782Z,56.06
2022-11-08T07:22:40.519Z,55.86
2022-11-08T07:27:42.087Z,56.16
2022-11-08T07:32:43.603Z,56.32
2022-11-08T07:37:45.134Z,56.21
2022-11-08T07:43:16.569Z,56.18
2022-11-08T07:48:12.655Z,56.55
2022-11-08T07:53:14.818Z,56.66
2022-11-08T07:58:17.241Z,56.76
2022-11-08T08:03:19.213Z,56.57
2022-11-08T08:08:21.063Z,56.32
2022-11-08T08:13:22.543Z,56.47
2022-11-08T08:18:24.083Z,56.34
2022-11-08T08:23:25.872Z,56.61
2022-11-08T08:28:27.454Z,56.54
2022-11-08T08:33:29.821Z,56.80
2022-11-08T08:38:33.416Z,56.65
2022-11-08T08:43:34.946Z,56.46
2022-11-08T08:48:38.446Z,56.21
2022-11-08T08:53:40.050Z,55.93
2022-11-08T08:58:42.285Z,56.11
2022-11-08T09:03:43.880Z,55.80
2022-11-08T09:08:45.382Z,55.93
2022-11-08T09:13:46.910Z,55.65
2022-11-08T09:18:48.494Z,55.87
2022-11-08T09:23:50.015Z,55.84
2022-11-08T09:28:51.543Z,55.95
2022-11-08T09:33:53.231Z,56.01
2022-11-08T09:38:54.805Z,55.86
2022-11-08T09:44:24.942Z,55.63
2022-11-08T09:49:33.275Z,55.63
2022-11-08T09:54:43.397Z,55.42
2022-11-08T09:59:54.499Z,54.90
2022-11-08T10:05:12.669Z,54.79
2022-11-08T10:10:37.067Z,54.25
2022-11-08T10:15:58.652Z,54.20
2022-11-08T10:21:13.669Z,54.11
2022-11-08T10:26:25.818Z,53.95
2022-11-08T10:31:33.569Z,53.91
2022-11-08T10:36:41.480Z,53.79
2022-11-08T10:42:09.361Z,53.64
2022-11-08T10:47:19.561Z,53.61
2022-11-08T10:52:43.211Z,53.51
2022-11-08T10:57:45.164Z,53.43
2022-11-08T11:02:51.710Z,53.10
2022-11-08T11:07:56.217Z,52.80
2022-11-08T11:13:11.101Z,52.60
2022-11-08T11:18:25.546Z,52.58
2022-11-08T11:23:37.275Z,52.25
2022-11-08T11:28:58.845Z,52.17
2022-11-08T11:34:16.772Z,52.13
2022-11-08T11:39:51.880Z,51.68
2022-11-08T11:45:08.417Z,51.08
2022-11-08T11:50:24.082Z,51.03
2022-11-08T11:55:52.674Z,50.96
2022-11-08T12:01:05.027Z,50.61
2022-11-08T12:06:33.716Z,50.65
2022-11-08T12:11:55.963Z,50.41
2022-11-08T12:17:25.299Z,50.34
2022-11-08T12:22:45.794Z,50.36
2022-11-08T12:28:12.508Z,50.32
2022-11-08T12:33:38.290Z,50.20
2022-11-08T12:39:19.193Z,50.08
2022-11-08T12:44:44.996Z,50.15
2022-11-08T12:50:12.527Z,50.04
2022-11-08T12:55:24.430Z,49.95
2022-11-08T13:00:29.580Z,49.81
2022-11-08T13:05:41.946Z,49.78
2022-11-08T13:11:01.573Z,49.66
2022-11-08T13:16:15.764Z,49.66
2022-11-08T13:21:34.304Z,49.40
2022-11-08T13:26:41.910Z,49.09
2022-11-08T13:31:52.478Z,49.04
2022-11-08T13:37:28.127Z,49.00
2022-11-08T13:42:35.861Z,48.82
2022-11-08T13:47:38.486Z,48.62
2022-11-08T13:53:01.094Z,48.63
2022-11-08T13:58:02.826Z,48.30
2022-11-08T14:03:33.077Z,48.25
2022-11-08T14:08:41.110Z,48.32
2022-11-08T14:14:12.516Z,47.82
2022-11-08T14:19:22.269Z,47.29
2022-11-08T14:24:27.920Z,47.28
2022-11-08T14:29:29.600Z,47.20
2022-11-08T14:34:34.041Z,47.06
2022-11-08T14:39:37.705Z,47.03
2022-11-08T14:44:43.691Z,47.08
2022-11-08T14:49:47.837Z,47.05
2022-11-08T14:54:59.730Z,46.94
2022-11-08T15:00:12.768Z,46.64
2022-11-08T15:05:24.902Z,46.82
2022-11-08T15:10:27.648Z,46.84
2022-11-08T15:15:33.709Z,47.07
2022-11-08T15:20:35.290Z,47.04
2022-11-08T15:25:38.234Z,47.36
2022-11-08T15:30:43.820Z,47.44
2022-11-08T15:35:46.932Z,47.46
2022-11-08T15:40:54.043Z,47.44
2022-11-08T15:45:55.868Z,47.39
2022-11-08T15:50:58.368Z,47.60
2022-11-08T15:56:05.162Z,47.40
2022-11-08T16:01:06.860Z,47.65
2022-11-08T16:06:12.194Z,47.61
2022-11-08T16:11:20.613Z,47.93
2022-11-08T16:16:22.211Z,48.01
2022-11-08T16:21:23.813Z,48.15
2022-11-08T16:26:25.378Z,48.29
2022-11-08T16:31:26.901Z,48.95
2022-11-08T16:36:28.375Z,49.20
2022-11-08T16:41:29.855Z,49.36
2022-11-08T16:46:31.449Z,49.64
2022-11-08T16:51:33.434Z,49.88
2022-11-08T16:56:35.017Z,49.87
2022-11-08T17:01:37.338Z,50.02
2022-11-08T17:06:39.008Z,50.07
2022-11-08T17:11:40.836Z,50.12
2022-11-08T17:16:42.343Z,50.50
2022-11-08T17:21:45.468Z,50.61
2022-11-08T17:26:47.602Z,50.50
2022-11-08T17:31:49.566Z,50.49
2022-11-08T17:36:52.799Z,50.81
2022-11-08T17:41:54.369Z,50.58
2022-11-08T17:46:55.901Z,50.96
2022-11-08T17:51:57.551Z,50.75
2022-11-08T17:56:59.160Z,50.99
2022-11-08T18:02:01.042Z,51.32
2022-11-08T18:07:02.670Z,51.16
2022-11-08T18:12:04.428Z,51.49
2022-11-08T18:17:05.934Z,51.51
2022-11-08T18:22:07.428Z,51.50
2022-11-08T18:27:08.973Z,51.46
2022-11-08T18:32:10.799Z,51.63
2022-11-08T18:37:12.366Z,51.42
2022-11-08T18:42:13.908Z,51.65
2022-11-08T18:47:15.516Z,51.65
2022-11-08T18:52:17.585Z,51.67
2022-11-08T18:57:19.826Z,51.41
2022-11-08T19:02:22.012Z,51.65
2022-11-08T19:07:24.337Z,51.76
2022-11-08T19:12:28.540Z,51.68
2022-11-08T19:17:31.892Z,51.67
2022-11-08T19:22:33.422Z,51.84
2022-11-08T19:27:35.002Z,51.88
2022-11-08T19:32:36.524Z,52.32
2022-11-08T19:37:38.105Z,52.08
2022-11-08T19:42:39.617Z,52.12
2022-11-08T19:47:41.176Z,51.92
2022-11-08T19:52:42.687Z,51.99
2022-11-08T19:57:44.295Z,52.21
2022-11-08T20:02:45.835Z,52.01
2022-11-08T20:07:47.547Z,51.95
2022-11-08T20:12:49.437Z,51.64
2022-11-08T20:17:50.964Z,51.69
2022-11-08T20:22:53.571Z,51.63
2022-11-08T20:27:55.169Z,52.03
2022-11-08T20:32:56.714Z,51.88
2022-11-08T20:37:58.319Z,51.97
2022-11-08T20:42:59.886Z,52.08
2022-11-08T20:48:02.881Z,51.75
2022-11-08T20:53:04.512Z,52.25
2022-11-08T20:58:06.119Z,52.12
2022-11-08T21:03:07.644Z,52.22
2022-11-08T21:08:57.941Z,52.25
2022-11-08T21:13:37.078Z,52.34
2022-11-08T21:18:39.783Z,52.31
2022-11-08T21:23:43.183Z,52.37
2022-11-08T21:28:45.698Z,52.42
2022-11-08T21:33:47.559Z,52.35
2022-11-08T21:38:49.237Z,52.51
2022-11-08T21:43:50.757Z,52.63
2022-11-08T21:48:54.406Z,52.52
2022-11-08T21:53:58.002Z,52.57
2022-11-08T21:59:00.649Z,52.63
2022-11-08T22:04:02.216Z,52.61
2022-11-08T22:09:03.923Z,52.70
2022-11-08T22:14:05.485Z,52.71
2022-11-08T22:19:07.616Z,52.67
2022-11-08T22:24:17.047Z,52.64
2022-11-08T22:29:18.872Z,52.68
2022-11-08T22:34:21.066Z,52.66
2022-11-08T22:39:23.496Z,52.58
2022-11-08T22:44:25.080Z,52.93
2022-11-08T22:49:26.626Z,52.93
2022-11-08T22:54:28.179Z,52.53
2022-11-08T22:59:29.770Z,52.60
2022-11-08T23:04:31.267Z,53.03
2022-11-08T23:09:32.777Z,52.82
2022-11-08T23:14:52.996Z,53.02
2022-11-08T23:20:13.153Z,52.73
2022-11-08T23:25:14.690Z,52.82
2022-11-08T23:30:36.931Z,52.68
2022-11-08T23:35:58.381Z,52.86
2022-11-08T23:41:18.377Z,53.06
2022-11-08T23:46:19.954Z,53.12
2022-11-08T23:51:21.539Z,52.54
2022-11-08T23:56:25.970Z,52.90
